sensor_id;sensor_type;location;lat;lon;timestamp;pressure;altitude;pressure_sealevel;temperature;humidity
58471;BME280;44258;51.288;12.068;2024-01-15T00:01:49;98699.66;;;3.05;64.07
58471;BME280;44258;51.288;12.068;2024-01-15T00:04:19;98696.72;;;2.59;64.79
58471;BME280;44258;51.288;12.068;2024-01-15T00:06:58;98689.06;;;2.70;65.16
58471;BME280;44258;51.288;12.068;2024-01-15T00:09:26;98700.47;;;2.90;64.15
58471;BME280;44258;51.288;12.068;2024-01-15T00:11:54;98692.28;;;2.77;64.23
58471;BME280;44258;51.288;12.068;2024-01-15T00:14:22;98688.03;;;2.56;65.06
58471;BME280;44258;51.288;12.068;2024-01-15T00:16:58;98668.47;;;2.76;64.00
58471;BME280;44258;51.288;12.068;2024-01-15T00:19:25;98676.25;;;2.79;64.04
58471;BME280;44258;51.288;12.068;2024-01-15T00:21:52;98651.19;;;2.84;64.17
58471;BME280;44258;51.288;12.068;2024-01-15T00:24:19;98659.78;;;2.72;64.52
58471;BME280;44258;51.288;12.068;2024-01-15T00:26:54;98673.53;;;2.80;64.47
58471;BME280;44258;51.288;12.068;2024-01-15T00:29:24;98663.84;;;2.62;64.72
58471;BME280;44258;51.288;12.068;2024-01-15T00:31:52;98684.06;;;2.47;65.53
58471;BME280;44258;51.288;12.068;2024-01-15T00:34:22;98686.56;;;2.85;64.21
58471;BME280;44258;51.288;12.068;2024-01-15T00:36:49;98680.94;;;2.56;64.95
58471;BME280;44258;51.288;12.068;2024-01-15T00:39:26;98681.94;;;2.71;64.43
58471;BME280;44258;51.288;12.068;2024-01-15T00:41:54;98669.75;;;2.67;64.79
58471;BME280;44258;51.288;12.068;2024-01-15T00:44:27;98666.41;;;2.81;64.51
58471;BME280;44258;51.288;12.068;2024-01-15T00:46:54;98657.38;;;2.67;65.09
58471;BME280;44258;51.288;12.068;2024-01-15T00:49:27;98666.59;;;2.78;64.67
58471;BME280;44258;51.288;12.068;2024-01-15T00:51:54;98670.31;;;2.91;64.04
58471;BME280;44258;51.288;12.068;2024-01-15T00:54:20;98670.81;;;2.82;64.17
58471;BME280;44258;51.288;12.068;2024-01-15T00:56:47;98667.31;;;2.81;63.95
58471;BME280;44258;51.288;12.068;2024-01-15T00:59:31;98659.47;;;2.78;64.26
58471;BME280;44258;51.288;12.068;2024-01-15T01:02:09;98667.91;;;2.69;64.35
58471;BME280;44258;51.288;12.068;2024-01-15T01:04:36;98669.00;;;2.82;64.01
58471;BME280;44258;51.288;12.068;2024-01-15T01:07:14;98659.69;;;2.91;63.45
58471;BME280;44258;51.288;12.068;2024-01-15T01:09:42;98658.13;;;3.04;62.98
58471;BME280;44258;51.288;12.068;2024-01-15T01:12:09;98673.13;;;3.05;63.15
58471;BME280;44258;51.288;12.068;2024-01-15T01:14:37;98666.81;;;3.08;62.72
58471;BME280;44258;51.288;12.068;2024-01-15T01:17:04;98649.47;;;3.01;63.03
58471;BME280;44258;51.288;12.068;2024-01-15T01:19:31;98668.28;;;2.96;62.97
58471;BME280;44258;51.288;12.068;2024-01-15T01:22:01;98666.13;;;2.69;63.80
58471;BME280;44258;51.288;12.068;2024-01-15T01:24:28;98669.72;;;2.86;63.78
58471;BME280;44258;51.288;12.068;2024-01-15T01:27:00;98666.09;;;2.87;63.63
58471;BME280;44258;51.288;12.068;2024-01-15T01:29:30;98671.34;;;2.88;63.57
58471;BME280;44258;51.288;12.068;2024-01-15T01:31:59;98658.69;;;2.93;63.10
58471;BME280;44258;51.288;12.068;2024-01-15T01:34:27;98660.97;;;2.66;63.63
58471;BME280;44258;51.288;12.068;2024-01-15T01:36:54;98660.72;;;2.71;63.51
58471;BME280;44258;51.288;12.068;2024-01-15T01:39:28;98648.41;;;2.70;63.24
58471;BME280;44258;51.288;12.068;2024-01-15T01:41:55;98639.59;;;2.69;63.14
58471;BME280;44258;51.288;12.068;2024-01-15T01:44:22;98643.94;;;2.88;62.44
58471;BME280;44258;51.288;12.068;2024-01-15T01:46:52;98651.72;;;2.91;62.40
58471;BME280;44258;51.288;12.068;2024-01-15T01:49:24;98655.81;;;2.81;62.41
58471;BME280;44258;51.288;12.068;2024-01-15T01:51:59;98653.16;;;2.81;62.63
58471;BME280;44258;51.288;12.068;2024-01-15T01:54:40;98642.94;;;2.56;62.75
58471;BME280;44258;51.288;12.068;2024-01-15T01:57:08;98629.09;;;2.66;62.79
58471;BME280;44258;51.288;12.068;2024-01-15T01:59:36;98617.56;;;2.50;63.28
58471;BME280;44258;51.288;12.068;2024-01-15T02:02:04;98635.59;;;2.61;62.81
58471;BME280;44258;51.288;12.068;2024-01-15T02:04:33;98624.97;;;2.43;63.37
58471;BME280;44258;51.288;12.068;2024-01-15T02:07:01;98635.72;;;2.40;63.66
58471;BME280;44258;51.288;12.068;2024-01-15T02:09:32;98618.03;;;2.41;63.12
58471;BME280;44258;51.288;12.068;2024-01-15T02:12:00;98633.66;;;2.47;63.12
58471;BME280;44258;51.288;12.068;2024-01-15T02:14:28;98616.97;;;2.45;63.15
58471;BME280;44258;51.288;12.068;2024-01-15T02:16:55;98622.31;;;2.43;63.23
58471;BME280;44258;51.288;12.068;2024-01-15T02:19:22;98609.44;;;2.18;64.10
58471;BME280;44258;51.288;12.068;2024-01-15T02:22:01;98616.38;;;2.21;64.11
58471;BME280;44258;51.288;12.068;2024-01-15T02:24:29;98607.13;;;2.47;63.42
58471;BME280;44258;51.288;12.068;2024-01-15T02:26:59;98606.09;;;2.49;63.07
58471;BME280;44258;51.288;12.068;2024-01-15T02:29:26;98597.13;;;2.35;63.36
58471;BME280;44258;51.288;12.068;2024-01-15T02:31:53;98599.78;;;2.35;63.67
58471;BME280;44258;51.288;12.068;2024-01-15T02:34:23;98605.78;;;2.38;63.33
58471;BME280;44258;51.288;12.068;2024-01-15T02:36:49;98622.09;;;2.48;63.54
58471;BME280;44258;51.288;12.068;2024-01-15T02:39:18;98618.97;;;2.57;63.13
58471;BME280;44258;51.288;12.068;2024-01-15T02:41:48;98632.22;;;2.40;63.67
58471;BME280;44258;51.288;12.068;2024-01-15T02:44:15;98635.34;;;2.48;63.32
58471;BME280;44258;51.288;12.068;2024-01-15T02:46:41;98636.84;;;2.53;63.52
58471;BME280;44258;51.288;12.068;2024-01-15T02:49:09;98632.16;;;2.76;63.18
58471;BME280;44258;51.288;12.068;2024-01-15T02:51:46;98643.47;;;2.80;62.92
58471;BME280;44258;51.288;12.068;2024-01-15T02:54:13;98646.91;;;2.82;62.98
58471;BME280;44258;51.288;12.068;2024-01-15T02:56:57;98633.88;;;2.77;62.82
58471;BME280;44258;51.288;12.068;2024-01-15T02:59:24;98615.91;;;2.65;63.03
58471;BME280;44258;51.288;12.068;2024-01-15T03:01:55;98604.13;;;2.36;63.74
58471;BME280;44258;51.288;12.068;2024-01-15T03:04:22;98622.31;;;2.43;63.88
58471;BME280;44258;51.288;12.068;2024-01-15T03:06:49;98609.44;;;2.70;63.34
58471;BME280;44258;51.288;12.068;2024-01-15T03:09:16;98619.44;;;2.65;63.04
58471;BME280;44258;51.288;12.068;2024-01-15T03:11:52;98604.31;;;2.32;63.54
58471;BME280;44258;51.288;12.068;2024-01-15T03:14:26;98598.84;;;2.53;63.33
58471;BME280;44258;51.288;12.068;2024-01-15T03:16:53;98600.88;;;2.48;63.04
58471;BME280;44258;51.288;12.068;2024-01-15T03:19:23;98602.91;;;2.43;63.37
58471;BME280;44258;51.288;12.068;2024-01-15T03:21:50;98603.13;;;2.56;63.38
58471;BME280;44258;51.288;12.068;2024-01-15T03:24:17;98611.31;;;2.68;62.70
58471;BME280;44258;51.288;12.068;2024-01-15T03:26:44;98607.13;;;2.47;62.85
58471;BME280;44258;51.288;12.068;2024-01-15T03:29:10;98589.34;;;2.49;62.94
58471;BME280;44258;51.288;12.068;2024-01-15T03:31:39;98593.38;;;2.39;62.95
58471;BME280;44258;51.288;12.068;2024-01-15T03:34:05;98591.13;;;2.31;63.06
58471;BME280;44258;51.288;12.068;2024-01-15T03:36:40;98590.75;;;2.39;62.95
58471;BME280;44258;51.288;12.068;2024-01-15T03:39:13;98589.84;;;2.38;62.96
58471;BME280;44258;51.288;12.068;2024-01-15T03:41:40;98585.94;;;2.28;63.34
58471;BME280;44258;51.288;12.068;2024-01-15T03:44:13;98582.28;;;2.13;63.96
58471;BME280;44258;51.288;12.068;2024-01-15T03:46:44;98600.91;;;2.11;64.43
58471;BME280;44258;51.288;12.068;2024-01-15T03:49:11;98598.53;;;2.42;63.92
58471;BME280;44258;51.288;12.068;2024-01-15T03:51:51;98589.75;;;2.05;63.96
58471;BME280;44258;51.288;12.068;2024-01-15T03:54:19;98591.81;;;2.17;64.58
58471;BME280;44258;51.288;12.068;2024-01-15T03:56:49;98580.66;;;2.10;64.52
58471;BME280;44258;51.288;12.068;2024-01-15T03:59:27;98598.94;;;1.98;65.03
58471;BME280;44258;51.288;12.068;2024-01-15T04:01:57;98578.31;;;2.04;64.53
58471;BME280;44258;51.288;12.068;2024-01-15T04:04:23;98589.66;;;1.89;65.04
58471;BME280;44258;51.288;12.068;2024-01-15T04:06:53;98593.63;;;1.80;65.34
58471;BME280;44258;51.288;12.068;2024-01-15T04:09:19;98603.44;;;1.96;64.99
58471;BME280;44258;51.288;12.068;2024-01-15T04:11:49;98615.88;;;1.76;65.38
58471;BME280;44258;51.288;12.068;2024-01-15T04:14:18;98597.41;;;1.75;65.61
58471;BME280;44258;51.288;12.068;2024-01-15T04:16:46;98592.81;;;1.78;65.45
58471;BME280;44258;51.288;12.068;2024-01-15T04:19:21;98599.22;;;1.91;64.73
58471;BME280;44258;51.288;12.068;2024-01-15T04:21:52;98601.66;;;1.60;66.16
58471;BME280;44258;51.288;12.068;2024-01-15T04:24:19;98604.81;;;1.68;65.02
58471;BME280;44258;51.288;12.068;2024-01-15T04:26:54;98593.00;;;1.92;64.63
58471;BME280;44258;51.288;12.068;2024-01-15T04:29:21;98587.84;;;1.89;64.55
58471;BME280;44258;51.288;12.068;2024-01-15T04:31:52;98590.91;;;1.63;65.38
58471;BME280;44258;51.288;12.068;2024-01-15T04:34:24;98584.09;;;1.76;64.78
58471;BME280;44258;51.288;12.068;2024-01-15T04:36:51;98584.97;;;1.58;65.14
58471;BME280;44258;51.288;12.068;2024-01-15T04:39:27;98604.88;;;1.66;64.54
58471;BME280;44258;51.288;12.068;2024-01-15T04:41:57;98598.34;;;1.74;64.49
58471;BME280;44258;51.288;12.068;2024-01-15T04:44:27;98597.66;;;1.87;64.00
58471;BME280;44258;51.288;12.068;2024-01-15T04:46:54;98611.81;;;2.05;63.54
58471;BME280;44258;51.288;12.068;2024-01-15T04:49:25;98601.56;;;1.80;64.06
58471;BME280;44258;51.288;12.068;2024-01-15T04:51:52;98609.63;;;1.96;63.53
58471;BME280;44258;51.288;12.068;2024-01-15T04:54:22;98610.22;;;1.84;63.36
58471;BME280;44258;51.288;12.068;2024-01-15T04:56:49;98605.47;;;1.90;63.53
58471;BME280;44258;51.288;12.068;2024-01-15T04:59:19;98621.69;;;1.84;64.15
58471;BME280;44258;51.288;12.068;2024-01-15T05:01:49;98622.66;;;2.01;63.86
58471;BME280;44258;51.288;12.068;2024-01-15T05:04:18;98610.13;;;2.04;63.46
58471;BME280;44258;51.288;12.068;2024-01-15T05:06:46;98615.66;;;2.17;63.21
58471;BME280;44258;51.288;12.068;2024-01-15T05:09:19;98618.56;;;2.12;62.75
58471;BME280;44258;51.288;12.068;2024-01-15T05:11:48;98611.69;;;2.26;62.36
58471;BME280;44258;51.288;12.068;2024-01-15T05:14:20;98622.41;;;2.24;61.91
58471;BME280;44258;51.288;12.068;2024-01-15T05:16:52;98623.88;;;2.47;61.71
58471;BME280;44258;51.288;12.068;2024-01-15T05:19:25;98626.91;;;2.40;61.94
58471;BME280;44258;51.288;12.068;2024-01-15T05:22:08;98609.94;;;2.26;62.20
58471;BME280;44258;51.288;12.068;2024-01-15T05:24:35;98611.81;;;2.05;62.98
58471;BME280;44258;51.288;12.068;2024-01-15T05:27:05;98610.75;;;2.44;61.72
58471;BME280;44258;51.288;12.068;2024-01-15T05:29:36;98603.81;;;2.42;61.56
58471;BME280;44258;51.288;12.068;2024-01-15T05:32:06;98593.75;;;2.48;61.15
58471;BME280;44258;51.288;12.068;2024-01-15T05:34:33;98600.06;;;2.11;61.65
58471;BME280;44258;51.288;12.068;2024-01-15T05:37:12;98592.13;;;2.28;61.68
58471;BME280;44258;51.288;12.068;2024-01-15T05:39:41;98585.59;;;2.18;61.77
58471;BME280;44258;51.288;12.068;2024-01-15T05:42:21;98599.22;;;2.28;61.75
58471;BME280;44258;51.288;12.068;2024-01-15T05:44:50;98592.53;;;2.02;62.29
58471;BME280;44258;51.288;12.068;2024-01-15T05:47:17;98606.94;;;2.15;62.38
58471;BME280;44258;51.288;12.068;2024-01-15T05:49:44;98596.09;;;2.20;61.80
58471;BME280;44258;51.288;12.068;2024-01-15T05:52:12;98594.38;;;2.36;61.39
58471;BME280;44258;51.288;12.068;2024-01-15T05:54:46;98590.88;;;2.53;60.88
58471;BME280;44258;51.288;12.068;2024-01-15T05:57:13;98579.41;;;2.35;60.97
58471;BME280;44258;51.288;12.068;2024-01-15T05:59:43;98575.59;;;2.41;60.64
58471;BME280;44258;51.288;12.068;2024-01-15T06:02:13;98573.47;;;2.12;61.35
58471;BME280;44258;51.288;12.068;2024-01-15T06:04:46;98572.22;;;2.20;61.91
58471;BME280;44258;51.288;12.068;2024-01-15T06:07:15;98580.31;;;1.99;62.00
58471;BME280;44258;51.288;12.068;2024-01-15T06:09:41;98563.81;;;2.29;61.37
58471;BME280;44258;51.288;12.068;2024-01-15T06:12:12;98580.72;;;2.44;61.14
58471;BME280;44258;51.288;12.068;2024-01-15T06:14:41;98577.31;;;2.24;61.29
58471;BME280;44258;51.288;12.068;2024-01-15T06:17:08;98574.34;;;2.30;61.24
58471;BME280;44258;51.288;12.068;2024-01-15T06:19:35;98575.91;;;2.35;60.75
58471;BME280;44258;51.288;12.068;2024-01-15T06:22:02;98580.13;;;2.39;60.56
58471;BME280;44258;51.288;12.068;2024-01-15T06:24:30;98574.03;;;2.37;60.87
58471;BME280;44258;51.288;12.068;2024-01-15T06:26:56;98579.25;;;2.21;61.10
58471;BME280;44258;51.288;12.068;2024-01-15T06:29:25;98579.41;;;2.35;60.60
58471;BME280;44258;51.288;12.068;2024-01-15T06:31:55;98573.16;;;2.36;60.66
58471;BME280;44258;51.288;12.068;2024-01-15T06:34:22;98590.84;;;2.01;61.83
58471;BME280;44258;51.288;12.068;2024-01-15T06:36:49;98569.66;;;2.18;61.08
58471;BME280;44258;51.288;12.068;2024-01-15T06:39:21;98584.16;;;2.11;60.97
58471;BME280;44258;51.288;12.068;2024-01-15T06:41:49;98590.94;;;2.34;60.57
58471;BME280;44258;51.288;12.068;2024-01-15T06:44:16;98581.44;;;2.30;61.03
58471;BME280;44258;51.288;12.068;2024-01-15T06:46:58;98576.06;;;2.14;60.99
58471;BME280;44258;51.288;12.068;2024-01-15T06:49:28;98585.25;;;2.07;60.88
58471;BME280;44258;51.288;12.068;2024-01-15T06:51:54;98583.91;;;2.16;60.89
58471;BME280;44258;51.288;12.068;2024-01-15T06:54:30;98590.28;;;2.30;60.60
58471;BME280;44258;51.288;12.068;2024-01-15T06:57:01;98608.66;;;2.16;60.92
58471;BME280;44258;51.288;12.068;2024-01-15T06:59:28;98606.88;;;2.17;61.10
58471;BME280;44258;51.288;12.068;2024-01-15T07:01:58;98597.59;;;2.25;60.77
58471;BME280;44258;51.288;12.068;2024-01-15T07:04:25;98608.19;;;2.25;60.60
58471;BME280;44258;51.288;12.068;2024-01-15T07:06:52;98598.91;;;2.17;61.02
58471;BME280;44258;51.288;12.068;2024-01-15T07:09:19;98597.66;;;2.24;60.75
58471;BME280;44258;51.288;12.068;2024-01-15T07:11:49;98590.16;;;2.32;60.43
58471;BME280;44258;51.288;12.068;2024-01-15T07:14:33;98592.28;;;2.25;60.37
58471;BME280;44258;51.288;12.068;2024-01-15T07:17:11;98591.34;;;2.26;60.38
58471;BME280;44258;51.288;12.068;2024-01-15T07:19:42;98589.09;;;2.19;60.57
58471;BME280;44258;51.288;12.068;2024-01-15T07:22:09;98598.00;;;2.35;60.38
58471;BME280;44258;51.288;12.068;2024-01-15T07:24:38;98602.50;;;2.33;60.53
58471;BME280;44258;51.288;12.068;2024-01-15T07:27:16;98596.81;;;2.23;60.10
58471;BME280;44258;51.288;12.068;2024-01-15T07:29:44;98607.44;;;2.41;60.37
58471;BME280;44258;51.288;12.068;2024-01-15T07:32:20;98600.00;;;2.30;59.89
58471;BME280;44258;51.288;12.068;2024-01-15T07:34:47;98610.72;;;2.28;60.28
58471;BME280;44258;51.288;12.068;2024-01-15T07:37:14;98616.00;;;2.46;59.95
58471;BME280;44258;51.288;12.068;2024-01-15T07:39:41;98610.97;;;2.05;61.14
58471;BME280;44258;51.288;12.068;2024-01-15T07:42:10;98599.16;;;2.12;60.88
58471;BME280;44258;51.288;12.068;2024-01-15T07:44:40;98600.53;;;2.19;60.67
58471;BME280;44258;51.288;12.068;2024-01-15T07:47:16;98605.88;;;2.37;60.10
58471;BME280;44258;51.288;12.068;2024-01-15T07:49:43;98592.03;;;2.30;60.40
58471;BME280;44258;51.288;12.068;2024-01-15T07:52:10;98589.31;;;2.31;60.26
58471;BME280;44258;51.288;12.068;2024-01-15T07:54:39;98591.03;;;2.32;60.47
58471;BME280;44258;51.288;12.068;2024-01-15T07:57:09;98592.97;;;2.46;59.86
58471;BME280;44258;51.288;12.068;2024-01-15T07:59:39;98600.25;;;2.60;59.79
58471;BME280;44258;51.288;12.068;2024-01-15T08:02:06;98595.09;;;2.40;60.09
58471;BME280;44258;51.288;12.068;2024-01-15T08:04:45;98588.31;;;2.51;59.94
58471;BME280;44258;51.288;12.068;2024-01-15T08:07:12;98594.94;;;2.43;59.95
58471;BME280;44258;51.288;12.068;2024-01-15T08:09:41;98592.28;;;2.25;60.23
58471;BME280;44258;51.288;12.068;2024-01-15T08:12:08;98589.00;;;2.20;60.76
58471;BME280;44258;51.288;12.068;2024-01-15T08:14:48;98585.75;;;2.32;60.03
58471;BME280;44258;51.288;12.068;2024-01-15T08:17:21;98592.63;;;2.37;60.04
58471;BME280;44258;51.288;12.068;2024-01-15T08:19:55;98589.34;;;2.49;60.10
58471;BME280;44258;51.288;12.068;2024-01-15T08:22:38;98592.75;;;2.33;60.68
58471;BME280;44258;51.288;12.068;2024-01-15T08:25:08;98586.97;;;2.25;60.67
58471;BME280;44258;51.288;12.068;2024-01-15T08:27:39;98591.88;;;1.98;61.58
58471;BME280;44258;51.288;12.068;2024-01-15T08:30:09;98592.63;;;2.37;60.75
58471;BME280;44258;51.288;12.068;2024-01-15T08:32:36;98604.59;;;2.44;60.43
58471;BME280;44258;51.288;12.068;2024-01-15T08:35:07;98596.81;;;2.23;60.53
58471;BME280;44258;51.288;12.068;2024-01-15T08:37:39;98606.00;;;2.33;60.67
58471;BME280;44258;51.288;12.068;2024-01-15T08:40:06;98614.91;;;2.50;60.13
58471;BME280;44258;51.288;12.068;2024-01-15T08:42:37;98612.72;;;2.58;59.96
58471;BME280;44258;51.288;12.068;2024-01-15T08:45:07;98603.38;;;2.51;60.12
58471;BME280;44258;51.288;12.068;2024-01-15T08:47:37;98620.06;;;2.53;59.76
58471;BME280;44258;51.288;12.068;2024-01-15T08:50:05;98615.59;;;2.71;59.67
58471;BME280;44258;51.288;12.068;2024-01-15T08:52:39;98603.59;;;2.64;59.81
58471;BME280;44258;51.288;12.068;2024-01-15T08:55:06;98615.66;;;2.87;59.30
58471;BME280;44258;51.288;12.068;2024-01-15T08:57:33;98607.94;;;2.82;59.49
58471;BME280;44258;51.288;12.068;2024-01-15T09:00:00;98607.06;;;2.99;58.84
58471;BME280;44258;51.288;12.068;2024-01-15T09:02:29;98610.78;;;3.12;58.97
58471;BME280;44258;51.288;12.068;2024-01-15T09:04:55;98598.00;;;3.03;58.90
58471;BME280;44258;51.288;12.068;2024-01-15T09:07:28;98612.03;;;3.05;58.91
58471;BME280;44258;51.288;12.068;2024-01-15T09:09:57;98605.22;;;2.84;59.23
58471;BME280;44258;51.288;12.068;2024-01-15T09:12:25;98610.47;;;2.68;59.83
58471;BME280;44258;51.288;12.068;2024-01-15T09:14:51;98613.69;;;2.57;60.53
58471;BME280;44258;51.288;12.068;2024-01-15T09:17:20;98605.53;;;2.78;59.85
58471;BME280;44258;51.288;12.068;2024-01-15T09:19:47;98612.09;;;2.88;59.64
58471;BME280;44258;51.288;12.068;2024-01-15T09:22:14;98604.25;;;3.02;59.31
58471;BME280;44258;51.288;12.068;2024-01-15T09:24:45;98597.19;;;3.19;59.05
58471;BME280;44258;51.288;12.068;2024-01-15T09:27:15;98599.41;;;2.93;59.38
58471;BME280;44258;51.288;12.068;2024-01-15T09:29:42;98604.97;;;3.06;58.83
58471;BME280;44258;51.288;12.068;2024-01-15T09:32:11;98603.78;;;3.27;58.92
58471;BME280;44258;51.288;12.068;2024-01-15T09:34:44;98603.41;;;3.02;58.75
58471;BME280;44258;51.288;12.068;2024-01-15T09:37:15;98609.56;;;3.02;59.18
58471;BME280;44258;51.288;12.068;2024-01-15T09:39:44;98611.38;;;3.02;58.96
58471;BME280;44258;51.288;12.068;2024-01-15T09:45:08;98619.41;;;3.00;59.24
58471;BME280;44258;51.288;12.068;2024-01-15T09:47:36;98624.94;;;3.62;58.21
58471;BME280;44258;51.288;12.068;2024-01-15T09:50:23;98610.72;;;3.63;58.03
58471;BME280;44258;51.288;12.068;2024-01-15T09:52:59;98621.00;;;3.53;57.96
58471;BME280;44258;51.288;12.068;2024-01-15T09:55:37;98624.78;;;3.65;57.85
58471;BME280;44258;51.288;12.068;2024-01-15T09:58:05;98616.41;;;3.73;57.56
58471;BME280;44258;51.288;12.068;2024-01-15T10:00:33;98619.53;;;3.48;58.03
58471;BME280;44258;51.288;12.068;2024-01-15T10:03:03;98618.50;;;3.66;58.03
58471;BME280;44258;51.288;12.068;2024-01-15T10:05:30;98617.75;;;3.48;58.42
58471;BME280;44258;51.288;12.068;2024-01-15T10:08:00;98627.28;;;3.52;58.76
58471;BME280;44258;51.288;12.068;2024-01-15T10:10:39;98614.41;;;3.92;57.77
58471;BME280;44258;51.288;12.068;2024-01-15T10:13:09;98616.78;;;3.97;57.95
58471;BME280;44258;51.288;12.068;2024-01-15T10:15:44;98607.63;;;4.03;57.64
58471;BME280;44258;51.288;12.068;2024-01-15T10:18:18;98612.34;;;3.82;58.00
58471;BME280;44258;51.288;12.068;2024-01-15T10:20:50;98609.34;;;3.72;58.37
58471;BME280;44258;51.288;12.068;2024-01-15T10:23:20;98602.84;;;3.62;58.60
58471;BME280;44258;51.288;12.068;2024-01-15T10:26:01;98595.38;;;3.84;58.27
58471;BME280;44258;51.288;12.068;2024-01-15T10:28:33;98603.97;;;3.89;57.82
58471;BME280;44258;51.288;12.068;2024-01-15T10:31:05;98592.22;;;3.93;57.93
58471;BME280;44258;51.288;12.068;2024-01-15T10:33:33;98585.56;;;4.01;57.81
58471;BME280;44258;51.288;12.068;2024-01-15T10:36:02;98563.88;;;3.92;57.39
58471;BME280;44258;51.288;12.068;2024-01-15T10:38:29;98578.66;;;3.82;58.04
58471;BME280;44258;51.288;12.068;2024-01-15T10:41:06;98573.81;;;4.05;57.58
58471;BME280;44258;51.288;12.068;2024-01-15T10:43:38;98578.16;;;3.76;58.12
58471;BME280;44258;51.288;12.068;2024-01-15T10:46:16;98581.22;;;3.68;58.37
58471;BME280;44258;51.288;12.068;2024-01-15T10:48:51;98578.22;;;3.90;58.50
58471;BME280;44258;51.288;12.068;2024-01-15T10:51:30;98580.03;;;3.73;58.65
58471;BME280;44258;51.288;12.068;2024-01-15T10:54:00;98583.88;;;3.68;58.38
58471;BME280;44258;51.288;12.068;2024-01-15T10:56:32;98575.91;;;3.68;58.32
58471;BME280;44258;51.288;12.068;2024-01-15T10:59:04;98589.91;;;3.71;58.40
58471;BME280;44258;51.288;12.068;2024-01-15T11:01:36;98579.84;;;3.77;58.33
58471;BME280;44258;51.288;12.068;2024-01-15T11:04:13;98581.91;;;3.87;57.82
58471;BME280;44258;51.288;12.068;2024-01-15T11:06:55;98584.22;;;3.78;57.88
58471;BME280;44258;51.288;12.068;2024-01-15T11:09:26;98584.75;;;3.52;58.53
58471;BME280;44258;51.288;12.068;2024-01-15T11:12:07;98582.59;;;3.59;58.20
58471;BME280;44258;51.288;12.068;2024-01-15T11:14:39;98591.25;;;3.79;58.28
58471;BME280;44258;51.288;12.068;2024-01-15T11:17:12;98582.97;;;3.36;59.48
58471;BME280;44258;51.288;12.068;2024-01-15T11:19:44;98586.53;;;3.52;58.91
58471;BME280;44258;51.288;12.068;2024-01-15T11:25:40;98580.88;;;3.58;58.94
58471;BME280;44258;51.288;12.068;2024-01-15T11:28:27;98582.69;;;3.58;59.13
58471;BME280;44258;51.288;12.068;2024-01-15T11:30:59;98594.94;;;3.76;58.37
58471;BME280;44258;51.288;12.068;2024-01-15T11:33:34;98584.72;;;3.37;59.30
58471;BME280;44258;51.288;12.068;2024-01-15T11:36:01;98583.41;;;3.44;59.01
58471;BME280;44258;51.288;12.068;2024-01-15T11:38:28;98583.63;;;3.88;58.44
58471;BME280;44258;51.288;12.068;2024-01-15T11:40:55;98583.31;;;4.09;57.20
58471;BME280;44258;51.288;12.068;2024-01-15T11:43:25;98571.91;;;4.07;57.64
58471;BME280;44258;51.288;12.068;2024-01-15T11:45:55;98586.38;;;3.71;58.45
58471;BME280;44258;51.288;12.068;2024-01-15T11:48:38;98570.94;;;3.46;59.16
58471;BME280;44258;51.288;12.068;2024-01-15T11:51:11;98585.00;;;3.80;58.30
58471;BME280;44258;51.288;12.068;2024-01-15T11:53:45;98577.56;;;3.21;59.64
58471;BME280;44258;51.288;12.068;2024-01-15T11:56:31;98573.88;;;3.73;58.39
58471;BME280;44258;51.288;12.068;2024-01-15T11:59:00;98582.16;;;3.99;58.05
58471;BME280;44258;51.288;12.068;2024-01-15T12:01:36;98574.59;;;3.91;57.63
58471;BME280;44258;51.288;12.068;2024-01-15T12:04:07;98578.25;;;4.20;57.72
58471;BME280;44258;51.288;12.068;2024-01-15T12:06:35;98583.19;;;4.42;57.09
58471;BME280;44258;51.288;12.068;2024-01-15T12:09:07;98575.59;;;4.20;57.21
58471;BME280;44258;51.288;12.068;2024-01-15T12:11:36;98572.81;;;4.07;57.56
58471;BME280;44258;51.288;12.068;2024-01-15T12:14:06;98576.13;;;4.11;57.29
58471;BME280;44258;51.288;12.068;2024-01-15T12:16:33;98581.19;;;4.16;57.59
58471;BME280;44258;51.288;12.068;2024-01-15T12:19:09;98573.88;;;4.19;57.63
58471;BME280;44258;51.288;12.068;2024-01-15T12:21:39;98556.13;;;4.20;57.25
58471;BME280;44258;51.288;12.068;2024-01-15T12:24:09;98564.63;;;4.10;57.46
58471;BME280;44258;51.288;12.068;2024-01-15T12:26:39;98565.84;;;3.89;58.07
58471;BME280;44258;51.288;12.068;2024-01-15T12:29:12;98558.97;;;4.01;57.54
58471;BME280;44258;51.288;12.068;2024-01-15T12:31:56;98554.97;;;3.93;57.96
58471;BME280;44258;51.288;12.068;2024-01-15T12:34:28;98556.25;;;3.86;57.88
58471;BME280;44258;51.288;12.068;2024-01-15T12:36:57;98563.94;;;3.61;58.82
58471;BME280;44258;51.288;12.068;2024-01-15T12:39:25;98555.31;;;3.87;58.69
58471;BME280;44258;51.288;12.068;2024-01-15T12:41:55;98562.97;;;4.24;57.60
58471;BME280;44258;51.288;12.068;2024-01-15T12:44:45;98555.69;;;4.42;57.51
58471;BME280;44258;51.288;12.068;2024-01-15T12:47:15;98556.84;;;4.52;57.20
58471;BME280;44258;51.288;12.068;2024-01-15T12:49:59;98560.38;;;4.38;57.27
58471;BME280;44258;51.288;12.068;2024-01-15T12:52:27;98565.31;;;4.44;57.00
58471;BME280;44258;51.288;12.068;2024-01-15T12:54:57;98564.31;;;4.31;57.26
58471;BME280;44258;51.288;12.068;2024-01-15T12:57:26;98574.34;;;4.11;58.02
58471;BME280;44258;51.288;12.068;2024-01-15T12:59:56;98571.59;;;3.97;58.45
58471;BME280;44258;51.288;12.068;2024-01-15T13:02:25;98578.06;;;3.77;59.33
58471;BME280;44258;51.288;12.068;2024-01-15T13:04:51;98567.56;;;4.06;58.78
58471;BME280;44258;51.288;12.068;2024-01-15T13:07:21;98571.22;;;4.19;58.31
58471;BME280;44258;51.288;12.068;2024-01-15T13:09:50;98579.75;;;3.94;59.10
58471;BME280;44258;51.288;12.068;2024-01-15T13:12:19;98566.19;;;3.99;58.95
58471;BME280;44258;51.288;12.068;2024-01-15T13:14:46;98567.91;;;4.16;58.29
58471;BME280;44258;51.288;12.068;2024-01-15T13:17:17;98563.94;;;4.07;58.59
58471;BME280;44258;51.288;12.068;2024-01-15T13:19:44;98578.00;;;4.09;58.51
58471;BME280;44258;51.288;12.068;2024-01-15T13:22:14;98567.97;;;4.14;58.35
58471;BME280;44258;51.288;12.068;2024-01-15T13:24:58;98571.91;;;4.23;58.26